Погода Наджранна 2 недели

Наджран, Саудовская Аравия

03 - 16 марта
  • 03марта
    Сегодня
    +15°
    +32°
    Небольшая облачность
    ВремяПогодаТемператураВлажностьДавлениеВетер, м/сВероятность осадков
    00:00Небольшая облачность+18°C28 %658 мм1.2 м/с2 %
    03:00Ясно и безоблачно+17°C31 %658 мм0.5 м/с2 %
    06:00Небольшая облачность+15°C38 %658 мм0.8 м/с2 %
    09:00Небольшая облачность+20°C44 %660 мм0.9 м/с2 %
    12:00Небольшая облачность+29°C28 %659 мм4.3 м/с2 %
    15:00Небольшая облачность+32°C22 %658 мм6.5 м/с9 %
    18:00Ясно и безоблачно+27°C34 %658 мм5.5 м/с5 %
    21:00Ясно и безоблачно+24°C51 %659 мм3.2 м/с2 %
  • 04марта
    Понедельник
    +16°
    +31°
    Практически безоблачно
    ВремяПогодаТемператураВлажностьДавлениеВетер, м/сВероятность осадков
    00:00Небольшая облачность+20°C62 %658 мм2.2 м/с2 %
    03:00Практически безоблачно+17°C79 %656 мм1.8 м/с2 %
    06:00Ясно и безоблачно+16°C81 %657 мм2.5 м/с2 %
    09:00Облачно с прояснениями+23°C52 %660 мм3.0 м/с2 %
    12:00Небольшая облачность+29°C20 %659 мм4.5 м/с3 %
    15:00Практически безоблачно+31°C20 %658 мм5.7 м/с7 %
    18:00Небольшая облачность+26°C36 %658 мм5.7 м/с7 %
    21:00Небольшая облачность+23°C41 %659 мм3.8 м/с2 %
  • 05марта
    Вторник
    +15°
    +33°
    Практически безоблачно
    ВремяПогодаТемператураВлажностьДавлениеВетер, м/сВероятность осадков
    00:00Небольшая облачность+20°C48 %658 мм1.0 м/с2 %
    03:00Небольшая облачность+17°C61 %657 мм2.1 м/с2 %
    06:00Ясно и безоблачно+16°C60 %657 мм2.9 м/с2 %
    09:00Небольшая облачность+22°C39 %660 мм1.7 м/с2 %
    12:00Ясно и безоблачно+27°C23 %660 мм1.6 м/с2 %
    15:00Практически безоблачно+32°C15 %658 мм1.7 м/с2 %
    18:00Ясно и безоблачно+27°C26 %659 мм6.5 м/с5 %
    21:00Ясно и безоблачно+24°C30 %660 мм4.2 м/с2 %
  • 06марта
    Среда
    +14°
    +30°
    Практически безоблачно
    ВремяПогодаТемператураВлажностьДавлениеВетер, м/сВероятность осадков
    00:00Ясно и безоблачно+20°C35 %660 мм1.9 м/с2 %
    03:00Ясно и безоблачно+17°C42 %658 мм1.7 м/с2 %
    06:00Ясно и безоблачно+16°C41 %659 мм0.8 м/с2 %
    09:00Ясно и безоблачно+20°C34 %662 мм1.7 м/с2 %
    12:00Ясно и безоблачно+26°C28 %661 мм2.7 м/с2 %
    15:00Практически безоблачно+29°C25 %659 мм4.9 м/с2 %
    18:00Ясно и безоблачно+27°C29 %659 мм1.9 м/с8 %
    21:00Ясно и безоблачно+23°C36 %660 мм2.9 м/с2 %
  • 07марта
    Четверг
    +15°
    +31°
    Практически безоблачно
    ВремяПогодаТемператураВлажностьДавлениеВетер, м/сВероятность осадков
    00:00Ясно и безоблачно+19°C46 %659 мм1.3 м/с2 %
    03:00Ясно и безоблачно+17°C54 %657 мм1.7 м/с2 %
    06:00Ясно и безоблачно+15°C72 %657 мм1.5 м/с2 %
    09:00Ясно и безоблачно+24°C48 %660 мм2.2 м/с2 %
    12:00Практически безоблачно+30°C25 %659 мм6.0 м/с2 %
    15:00Практически безоблачно+31°C25 %658 мм6.9 м/с11 %
    18:00Ясно и безоблачно+26°C40 %659 мм6.3 м/с8 %
    21:00Ясно и безоблачно+23°C52 %659 мм5.0 м/с2 %
Мы используем cookies
Соглашаюсь